Latest Weather Observations for Mudgee

IDN60801

Issued at 8:35 pm EST Friday 18 April 2014 (issued every 30 minutes, with the page automatically refreshed every 10 minutes)

About weather observations | Map of weather stations | Latest weather observations for NSW | Other Formats
Station Details ID: 062101 Name: MUDGEE AIRPORT AWS Lat: -32.56 Lon: 149.61 Height: 471.0 m
Data from the previous 72 hours. | See also: Recent months at Mudgee
Date/Time
EST
Temp
°C
App
Temp
°C
Dew
Point
Rel
Hum
%
Delta-T
°C
Wind Press
QNH
hPa
Press
MSL
hPa
Rain
since 9 am
mm
Dir
 
Spd
km/h
Gust
km/h
Spd
kts
Gust
kts
18/08:30pm 12.5 11.2 9.9 84 1.4 N 7 7 4 4 1017.4 - 0.0
18/08:00pm 13.1 11.6 9.0 76 2.1 N 7 7 4 4 1017.1 - 0.0
18/07:30pm 14.8 13.5 9.2 69 2.9 N 6 7 3 4 1016.8 - 0.0
18/07:00pm 15.0 14.4 9.1 68 3.1 WNW 2 9 1 5 1016.7 - 0.0
18/06:30pm 16.5 15.7 8.2 58 4.3 W 2 6 1 3 1016.7 - 0.0
18/06:00pm 16.9 14.4 8.3 57 4.5 W 11 13 6 7 1016.4 1015.4 0.0
18/05:30pm 17.4 14.6 8.5 56 4.7 W 13 19 7 10 1016.4 - 0.0
18/05:00pm 19.4 15.9 8.7 50 5.7 WSW 17 22 9 12 1016.1 - 0.0
18/04:30pm 19.7 16.0 9.6 52 5.5 WSW 19 24 10 13 1015.9 - 0.0
18/04:00pm 19.8 15.4 8.8 49 5.9 WSW 22 30 12 16 1015.8 - 0.0
18/03:30pm 20.6 17.3 9.5 49 6.1 WSW 17 24 9 13 1015.9 - 0.0
18/03:00pm 20.1 15.4 9.4 50 5.8 W 24 35 13 19 1015.9 1014.9 0.0
18/02:30pm 20.8 17.0 9.7 49 6.1 WSW 20 26 11 14 1015.8 - 0.0
18/02:00pm 21.2 17.0 9.8 48 6.3 WSW 22 35 12 19 1016.0 - 0.0
18/01:30pm 20.6 15.6 9.5 49 6.1 W 26 33 14 18 1016.1 - 0.0
18/01:00pm 20.2 16.4 9.2 49 6.0 W 19 28 10 15 1016.4 - 0.0
18/12:30pm 19.8 15.4 9.1 50 5.8 W 22 30 12 16 1017.0 - 0.0
18/12:00pm 19.3 15.6 9.5 53 5.3 W 19 26 10 14 1017.4 1016.3 0.0
18/11:30am 18.9 15.2 9.4 54 5.1 WSW 19 30 10 16 1017.9 - 0.0
18/11:00am 18.2 16.0 9.5 57 4.7 W 11 17 6 9 1018.4 - 0.0
18/10:30am 17.1 15.7 9.5 61 4.1 NNW 7 13 4 7 1018.7 - 0.0
18/10:00am 16.5 15.2 10.1 66 3.5 N 7 11 4 6 1019.0 - 0.0
18/09:30am 14.7 13.9 11.1 79 2.0 NNW 6 7 3 4 1019.6 - 0.0
18/09:00am 11.7 11.2 9.3 85 1.2 W 2 7 1 4 1019.8 1018.8 0.0
18/08:30am 10.0 9.4 8.9 93 0.6 W 2 6 1 3 1019.7 - 0.0
18/08:00am 7.8 7.2 7.4 97 0.2 CALM 0 0 0 0 1019.8 - 0.0
18/07:30am 6.8 6.0 6.5 98 0.1 CALM 0 6 0 3 1019.7 - 0.0
18/07:00am 4.9 3.7 4.6 98 0.1 CALM 0 0 0 0 1019.7 - 0.0
18/06:30am 5.0 3.8 4.7 98 0.1 CALM 0 0 0 0 1019.6 - 0.0
18/06:00am 4.4 2.7 4.1 98 0.1 NE 2 7 1 4 1019.2 1018.2 0.0
18/05:30am 5.3 3.4 5.0 98 0.1 E 4 7 2 4 1019.1 - 0.0
18/05:00am 5.2 4.1 4.9 98 0.1 CALM 0 0 0 0 1019.3 - 0.0
18/04:30am 5.8 3.6 5.5 98 0.1 NE 6 7 3 4 1019.1 - 0.0
18/04:00am 5.1 3.9 4.8 98 0.1 CALM 0 0 0 0 1019.2 - 0.0
18/03:30am 5.2 4.1 4.9 98 0.1 CALM 0 0 0 0 1019.1 - 0.0
18/03:00am 5.5 3.3 5.2 98 0.1 ENE 6 7 3 4 1019.2 1018.2 0.0
18/02:30am 5.9 2.8 5.5 97 0.2 NE 11 13 6 7 1019.6 - 0.0
18/02:00am 6.6 5.7 6.0 96 0.3 CALM 0 0 0 0 1019.7 - 0.0
18/01:30am 7.0 6.2 6.6 97 0.2 CALM 0 0 0 0 1019.9 - 0.0
18/01:00am 6.7 4.5 6.1 96 0.3 NE 7 9 4 5 1020.1 - 0.0
18/12:30am 6.9 3.6 6.5 97 0.2 NE 13 15 7 8 1020.2 - 0.0
18/12:00am 7.1 4.9 6.0 93 0.5 NE 7 11 4 6 1020.2 1019.2 0.0
 
Date/Time
EST
Temp
°C
App
Temp
°C
Dew
Point
Rel
Hum
%
Delta-T
°C
Wind Press
QNH
hPa
Press
MSL
hPa
Rain
since 9 am
mm
Dir
 
Spd
km/h
Gust
km/h
Spd
kts
Gust
kts
17/11:30pm 8.5 6.5 7.3 92 0.6 NE 7 9 4 5 1020.2 - 0.0
17/11:00pm 10.4 9.1 7.6 83 1.4 ENE 4 7 2 4 1020.4 - 0.0
17/10:30pm 8.5 5.8 7.3 92 0.6 NNE 11 15 6 8 1020.6 - 0.0
17/10:00pm 8.2 5.8 7.1 93 0.5 NE 9 13 5 7 1020.5 - 0.0
17/09:30pm 9.4 6.9 8.0 91 0.7 NE 11 13 6 7 1020.5 - 0.0
17/09:00pm 10.4 8.8 8.8 90 0.8 NNE 7 9 4 5 1020.5 1019.5 0.0
17/08:30pm 10.4 8.5 6.7 78 1.8 NNE 6 9 3 5 1020.3 - 0.0
17/08:00pm 12.8 12.3 7.9 72 2.5 CALM 0 0 0 0 1020.1 - 0.0
17/07:30pm 14.8 13.2 7.8 63 3.6 NE 6 7 3 4 1020.1 - 0.0
17/07:00pm 14.6 14.1 7.9 64 3.4 CALM 0 0 0 0 1019.7 - 0.0
17/06:30pm 15.9 14.7 7.9 59 4.1 ESE 4 7 2 4 1019.5 - 0.0
17/06:00pm 17.1 15.2 7.7 54 4.8 WSW 7 9 4 5 1019.1 1018.1 0.0
17/05:30pm 17.6 14.7 8.2 54 4.9 WSW 13 15 7 8 1018.9 - 0.0
17/05:00pm 19.8 17.0 8.5 48 6.0 WSW 13 19 7 10 1018.6 - 0.0
17/04:30pm 20.6 17.3 6.5 40 7.3 SSW 13 19 7 10 1018.5 - 0.0
17/04:00pm 20.0 17.3 7.4 44 6.6 SSW 11 15 6 8 1018.4 - 0.0
17/03:30pm 21.4 18.9 6.5 38 7.7 SSW 9 17 5 9 1018.4 - 0.0
17/03:00pm 19.9 17.7 7.9 46 6.3 SSW 9 13 5 7 1018.5 1017.5 0.0
17/02:30pm 21.4 20.0 7.3 40 7.4 SSW 4 7 2 4 1018.6 - 0.0
17/02:00pm 20.7 18.6 6.6 40 7.3 SE 7 11 4 6 1018.7 - 0.0
17/01:30pm 20.3 18.1 7.7 44 6.6 W 9 15 5 8 1018.9 - 0.0
17/01:00pm 20.3 18.3 8.6 47 6.3 N 9 15 5 8 1019.2 - 0.0
17/12:30pm 20.2 18.6 8.8 48 6.1 W 7 15 4 8 1019.7 - 0.0
17/12:00pm 20.0 18.2 9.3 50 5.8 SSW 9 20 5 11 1020.2 1019.2 0.0
17/11:30am 19.0 17.5 9.2 53 5.3 WSW 7 11 4 6 1020.8 - 0.0
17/11:00am 19.0 18.1 10.6 58 4.6 NNW 6 13 3 7 1021.2 - 0.0
17/10:30am 17.6 16.8 11.8 69 3.3 NW 7 11 4 6 1021.2 - 0.0
17/10:00am 17.0 17.1 12.7 76 2.4 S 4 11 2 6 1021.4 - 0.0
17/09:30am 15.7 15.7 12.5 81 1.8 W 4 7 2 4 1021.4 - 0.0
17/09:00am 14.9 15.4 12.9 88 1.1 NNE 2 6 1 3 1021.4 1020.5 0.0
17/08:30am 12.6 13.3 12.3 98 0.2 CALM 0 0 0 0 1021.6 - 0.0
17/08:00am 11.3 11.7 11.1 99 0.1 CALM 0 0 0 0 1021.3 - 0.0
17/07:30am 9.2 9.0 9.1 99 0.1 CALM 0 0 0 0 1021.2 - 0.0
17/07:14am 8.6 7.5 8.5 99 0.0 N 4 6 2 3 1020.9 - 0.0
17/07:00am 8.3 7.5 8.0 98 0.1 ENE 2 7 1 4 1020.6 - 0.0
17/06:39am 7.6 7.0 7.3 98 0.1 CALM 0 0 0 0 1020.6 - 0.0
17/06:32am 7.6 7.0 7.3 98 0.1 CALM 0 0 0 0 1020.5 - 0.0
17/06:30am 7.7 7.1 7.4 98 0.1 CALM 0 0 0 0 1020.5 - 0.0
17/06:18am 8.1 7.6 7.8 98 0.1 CALM 0 0 0 0 1020.3 - 0.0
17/06:00am 8.9 8.6 8.6 98 0.1 CALM 0 0 0 0 1020.2 1019.2 0.0
17/05:30am 8.9 8.6 8.6 98 0.1 CALM 0 7 0 4 1020.0 - 0.0
17/05:27am 8.8 8.5 8.5 98 0.1 CALM 0 0 0 0 1020.0 - 0.0
17/05:12am 8.9 8.6 8.6 98 0.1 CALM 0 0 0 0 1020.0 - 0.0
17/05:00am 9.0 8.3 8.7 98 0.1 NNE 2 9 1 5 1019.9 - 0.0
17/04:30am 9.1 7.7 8.8 98 0.2 NE 6 7 3 4 1019.6 - 0.0
17/04:00am 8.6 7.1 8.3 98 0.1 NNE 6 7 3 4 1019.6 - 0.0
17/03:30am 8.5 6.8 8.2 98 0.1 NNE 7 9 4 5 1019.5 - 0.0
17/03:00am 9.1 7.1 8.8 98 0.1 NNE 9 11 5 6 1019.3 1018.3 0.0
17/02:30am 9.9 9.8 9.6 98 0.2 CALM 0 0 0 0 1019.3 - 0.0
17/02:00am 10.4 10.5 10.1 98 0.2 CALM 0 0 0 0 1019.3 - 0.0
17/01:30am 11.5 11.9 11.2 98 0.2 CALM 0 0 0 0 1019.6 - 0.0
17/01:00am 11.6 12.0 11.3 98 0.2 CALM 0 0 0 0 1019.8 - 0.0
17/12:30am 11.3 10.5 11.0 98 0.2 N 6 11 3 6 1020.1 - 0.0
17/12:00am 12.4 13.1 12.1 98 0.2 CALM 0 0 0 0 1020.1 1019.1 0.0
 
Date/Time
EST
Temp
°C
App
Temp
°C
Dew
Point
Rel
Hum
%
Delta-T
°C
Wind Press
QNH
hPa
Press
MSL
hPa
Rain
since 9 am
mm
Dir
 
Spd
km/h
Gust
km/h
Spd
kts
Gust
kts
16/11:30pm 12.3 12.9 12.0 98 0.2 CALM 0 0 0 0 1020.1 - 0.0
16/11:00pm 12.1 11.9 11.8 98 0.2 ENE 4 7 2 4 1020.1 - 0.0
16/10:30pm 12.2 11.3 11.4 95 0.4 NE 7 9 4 5 1020.1 - 0.0
16/10:00pm 12.9 13.3 11.3 90 0.9 CALM 0 0 0 0 1020.0 - 0.0
16/09:30pm 13.3 13.7 11.2 87 1.1 CALM 0 6 0 3 1020.0 - 0.0
16/09:00pm 14.1 13.4 11.4 84 1.5 S 6 7 3 4 1019.9 1018.9 0.0
16/08:30pm 14.4 13.7 12.1 86 1.3 NE 7 9 4 5 1019.7 - 0.0
16/08:00pm 14.0 12.5 12.0 88 1.1 NE 11 13 6 7 1019.3 - 0.0
16/07:30pm 15.2 15.1 10.8 75 2.4 SE 2 7 1 4 1019.1 - 0.0
16/07:00pm 15.5 14.6 11.3 76 2.3 SSE 7 9 4 5 1019.0 - 0.0
16/06:30pm 15.8 15.1 11.4 75 2.4 NNW 6 9 3 5 1018.9 - 0.0
16/06:00pm 16.5 15.5 11.0 70 3.0 N 7 9 4 5 1018.6 1017.6 0.0
16/05:30pm 18.5 17.5 11.1 62 4.1 WNW 7 9 4 5 1018.2 - 0.0
16/05:00pm 19.6 18.5 9.8 53 5.4 WNW 6 7 3 4 1017.9 - 0.0
16/04:30pm 20.8 19.5 10.0 50 6.0 WNW 7 11 4 6 1017.8 - 0.0
16/04:00pm 19.9 17.6 10.3 54 5.3 W 13 17 7 9 1017.9 - 0.0
16/03:30pm 19.6 18.2 12.1 62 4.3 W 11 15 6 8 1018.0 - 0.0
16/03:00pm 20.2 18.5 10.0 52 5.6 S 9 13 5 7 1018.1 1017.1 0.0
16/02:30pm 20.8 19.7 10.6 52 5.7 SSE 7 15 4 8 1018.1 - 0.0
16/02:00pm 21.3 19.0 10.5 50 6.0 S 13 17 7 9 1018.1 - 0.0
16/01:30pm 21.1 20.0 10.0 49 6.1 SW 6 11 3 6 1018.2 - 0.0
16/01:00pm 20.5 19.1 9.4 49 6.0 ESE 7 17 4 9 1018.4 - 0.0
16/12:30pm 20.1 18.4 9.9 52 5.6 SE 9 19 5 10 1018.8 - 0.0
16/12:00pm 19.8 17.3 9.7 52 5.5 SE 13 22 7 12 1019.5 1018.4 0.0
16/11:30am 19.5 16.6 9.7 53 5.3 SE 15 20 8 11 1020.0 - 0.0
16/11:00am 18.9 17.3 11.5 62 4.2 S 11 17 6 9 1020.3 - 0.0
16/10:30am 18.1 16.6 10.5 61 4.2 S 9 20 5 11 1020.7 - 0.0
16/10:00am 17.0 14.6 10.1 64 3.7 S 13 17 7 9 1020.9 - 0.0
16/09:30am 17.0 15.1 10.6 66 3.5 S 11 20 6 11 1021.1 - 0.0
16/09:00am 15.8 13.8 10.1 69 3.1 SSW 11 15 6 8 1021.2 1020.2 0.0
16/08:30am 15.6 13.2 10.2 70 2.9 S 13 15 7 8 1020.9 - 0.0
16/08:00am 14.8 13.6 10.2 74 2.5 S 7 9 4 5 1020.9 - 0.0
16/07:30am 14.2 13.8 9.6 74 2.4 SE 2 7 1 4 1020.5 - 0.0
16/07:00am 13.7 13.7 9.7 77 2.1 CALM 0 0 0 0 1020.1 - 0.0
16/06:30am 13.8 13.8 9.8 77 2.1 CALM 0 0 0 0 1019.6 - 0.0
16/06:00am 13.8 12.8 10.2 79 1.9 S 6 7 3 4 1019.5 1018.4 0.0
16/05:30am 14.0 13.3 10.2 78 2.0 E 4 9 2 5 1019.5 - 0.0
16/05:00am 13.7 13.7 9.9 78 2.0 CALM 0 0 0 0 1019.3 - 0.0
16/04:30am 14.1 13.0 10.1 77 2.1 ESE 6 7 3 4 1019.2 - 0.0
16/04:00am 14.3 12.3 10.3 77 2.1 SE 11 17 6 9 1019.2 - 0.0
16/03:30am 14.5 13.3 10.3 76 2.2 S 7 11 4 6 1019.2 - 0.0
16/03:00am 14.8 13.6 10.2 74 2.5 SSE 7 13 4 7 1019.0 1018.0 0.0
16/02:30am 15.0 13.5 10.4 74 2.5 SE 9 17 5 9 1019.2 - 0.0
16/02:00am 15.2 13.7 10.4 73 2.6 SE 9 17 5 9 1019.5 - 0.0
16/01:30am 15.6 12.9 10.2 70 2.9 ESE 15 22 8 12 1019.9 - 0.0
16/01:00am 15.6 12.9 10.4 71 2.8 SE 15 26 8 14 1020.1 - 0.0
16/12:30am 15.6 13.3 10.4 71 2.8 SE 13 20 7 11 1020.1 - 0.0
16/12:00am 15.1 13.5 10.1 72 2.7 S 9 17 5 9 1020.1 1019.1 0.0
 
Date/Time
EST
Temp
°C
App
Temp
°C
Dew
Point
Rel
Hum
%
Delta-T
°C
Wind Press
QNH
hPa
Press
MSL
hPa
Rain
since 9 am
mm
Dir
 
Spd
km/h
Gust
km/h
Spd
kts
Gust
kts
15/11:30pm 15.3 13.9 9.7 69 3.0 S 7 11 4 6 1020.2 - 0.0
15/11:00pm 15.6 14.2 9.5 67 3.2 SSE 7 11 4 6 1020.3 - 0.0
15/10:30pm 15.6 14.2 9.7 68 3.1 SSE 7 11 4 6 1020.5 - 0.0
15/10:00pm 16.6 13.3 9.5 63 3.8 SE 17 32 9 17 1020.4 - 0.0
15/09:30pm 17.0 14.1 9.7 62 3.9 ESE 15 26 8 14 1020.3 - 0.0
15/09:00pm 17.3 14.5 10.0 62 3.9 SE 15 24 8 13 1020.2 1019.2 0.0

Other Formats:

Comma delimited format used in spreadsheet applications
http://www.bom.gov.au/fwo/IDN60801/IDN60801.94727.axf

JavaScript Object Notation format (JSON) in row-major order
http://www.bom.gov.au/fwo/IDN60801/IDN60801.94727.json